createdAt,value
2019-02-16T00:00:46.730Z,0.09
2019-02-16T00:03:16.069Z,0.06
2019-02-16T00:05:45.496Z,-0.04
2019-02-16T00:08:14.892Z,-0.06
2019-02-16T00:10:44.205Z,-0.07
2019-02-16T00:13:13.531Z,-0.15
2019-02-16T00:15:43.000Z,-0.30
2019-02-16T00:18:12.355Z,-0.37
2019-02-16T00:20:41.658Z,-0.47
2019-02-16T00:23:11.209Z,-0.54
2019-02-16T00:25:40.598Z,-0.59
2019-02-16T00:28:09.894Z,-0.67
2019-02-16T00:30:39.282Z,-0.70
2019-02-16T00:33:08.636Z,-0.81
2019-02-16T00:35:37.979Z,-0.89
2019-02-16T00:38:07.341Z,-0.94
2019-02-16T00:40:36.759Z,-0.96
2019-02-16T00:43:06.174Z,-1.01
2019-02-16T00:45:35.568Z,-1.10
2019-02-16T00:48:05.027Z,-1.13
2019-02-16T00:50:34.377Z,-1.14
2019-02-16T00:53:03.866Z,-1.14
2019-02-16T00:55:33.225Z,-1.13
2019-02-16T00:58:02.553Z,-1.20
2019-02-16T01:00:31.921Z,-1.20
2019-02-16T01:03:01.257Z,-1.34
2019-02-16T01:05:30.658Z,-1.40
2019-02-16T01:08:00.061Z,-1.43
2019-02-16T01:10:29.384Z,-1.37
2019-02-16T01:12:58.677Z,-1.32
2019-02-16T01:15:28.222Z,-1.34
2019-02-16T01:17:57.568Z,-1.45
2019-02-16T01:20:26.924Z,-1.48
2019-02-16T01:22:56.502Z,-1.52
2019-02-16T01:25:25.829Z,-1.57
2019-02-16T01:27:55.233Z,-1.60
2019-02-16T01:30:24.758Z,-1.70
2019-02-16T01:32:54.034Z,-1.78
2019-02-16T01:35:23.388Z,-1.86
2019-02-16T01:37:52.816Z,-1.90
2019-02-16T01:40:22.077Z,-1.97
2019-02-16T01:42:51.414Z,-2.04
2019-02-16T01:45:20.963Z,-2.06
2019-02-16T01:47:50.283Z,-2.13
2019-02-16T01:50:19.541Z,-2.16
2019-02-16T01:52:49.084Z,-2.22
2019-02-16T01:55:18.391Z,-2.25
2019-02-16T01:57:47.759Z,-2.30
2019-02-16T02:00:17.322Z,-2.30
2019-02-16T02:02:46.612Z,-2.36
2019-02-16T02:05:15.877Z,-2.40
2019-02-16T02:07:45.271Z,-2.38
2019-02-16T02:10:14.615Z,-2.41
2019-02-16T02:12:43.963Z,-2.36
2019-02-16T02:15:13.379Z,-2.34
2019-02-16T02:17:42.695Z,-2.28
2019-02-16T02:20:12.035Z,-2.21
2019-02-16T02:22:41.459Z,-2.18
2019-02-16T02:25:11.334Z,-2.18
2019-02-16T02:27:40.633Z,-2.18
2019-02-16T02:30:10.783Z,-2.12
2019-02-16T02:32:40.136Z,-2.09
2019-02-16T02:35:09.420Z,-2.03
2019-02-16T02:37:38.947Z,-1.93
2019-02-16T02:40:08.432Z,-1.78
2019-02-16T02:42:37.762Z,-1.67
2019-02-16T02:45:08.470Z,-1.44
2019-02-16T02:47:37.784Z,-1.14
2019-02-16T02:50:07.416Z,-0.76
2019-02-16T02:52:36.948Z,-0.50
2019-02-16T02:55:06.837Z,-0.22
2019-02-16T02:57:36.235Z,-0.16
2019-02-16T03:00:06.698Z,-0.19
2019-02-16T03:02:36.010Z,-0.27
2019-02-16T03:05:05.712Z,-0.44
2019-02-16T03:07:35.243Z,-0.61
2019-02-16T03:10:04.888Z,-0.57
2019-02-16T03:12:34.174Z,-0.37
2019-02-16T03:15:03.669Z,-0.24
2019-02-16T03:17:32.998Z,-0.18
2019-02-16T03:20:02.270Z,0.04
2019-02-16T03:23:12.079Z,0.23
2019-02-16T03:25:42.335Z,0.45
2019-02-16T03:28:34.747Z,0.49
2019-02-16T03:31:52.685Z,0.39
2019-02-16T03:34:26.119Z,0.44
2019-02-16T03:37:46.194Z,0.57
2019-02-16T03:40:15.603Z,0.47
2019-02-16T03:42:44.861Z,0.52
2019-02-16T03:45:14.236Z,0.69
2019-02-16T03:47:43.754Z,0.61
2019-02-16T03:50:13.158Z,0.57
2019-02-16T03:52:42.443Z,0.53
2019-02-16T03:55:11.933Z,0.48
2019-02-16T03:57:41.233Z,0.48
2019-02-16T04:00:10.698Z,0.46
2019-02-16T04:02:40.305Z,0.48
2019-02-16T04:05:09.621Z,0.39
2019-02-16T04:07:38.909Z,0.23
2019-02-16T04:10:08.314Z,0.07
2019-02-16T04:12:37.678Z,-0.06
2019-02-16T04:15:07.181Z,-0.12
2019-02-16T04:17:36.553Z,-0.15
2019-02-16T04:20:06.398Z,-0.23
2019-02-16T04:22:35.699Z,-0.28
2019-02-16T04:25:05.198Z,-0.38
2019-02-16T04:27:34.528Z,-0.39
2019-02-16T04:30:04.052Z,-0.38
2019-02-16T04:32:33.495Z,-0.41
2019-02-16T04:35:02.810Z,-0.56
2019-02-16T04:37:32.165Z,-0.67
2019-02-16T04:40:01.669Z,-0.75
2019-02-16T04:42:30.976Z,-0.82
2019-02-16T04:45:00.354Z,-0.83
2019-02-16T04:47:29.838Z,-0.91
2019-02-16T04:49:59.131Z,-0.97
2019-02-16T04:52:34.844Z,-0.72
2019-02-16T04:54:59.482Z,-0.47
2019-02-16T04:57:28.760Z,-0.21
2019-02-16T04:59:58.122Z,-0.13
2019-02-16T05:02:27.719Z,-0.13
2019-02-16T05:04:57.036Z,-0.22
2019-02-16T05:07:26.364Z,-0.34
2019-02-16T05:09:55.939Z,-0.47
2019-02-16T05:12:25.300Z,-0.55
2019-02-16T05:14:54.607Z,-0.64
2019-02-16T05:17:24.149Z,-0.71
2019-02-16T05:19:53.514Z,-0.50
2019-02-16T05:22:22.774Z,-0.55
2019-02-16T05:24:52.244Z,-0.55
2019-02-16T05:27:21.652Z,-0.53
2019-02-16T05:29:50.942Z,-0.40
2019-02-16T05:32:20.510Z,-0.29
2019-02-16T05:34:50.000Z,-0.17
2019-02-16T05:37:19.298Z,-0.12
2019-02-16T05:39:49.095Z,-0.03
2019-02-16T05:42:18.443Z,0.08
2019-02-16T05:44:47.725Z,0.17
2019-02-16T05:47:17.309Z,0.27
2019-02-16T05:49:46.639Z,0.32
2019-02-16T05:52:16.044Z,0.41
2019-02-16T05:54:45.611Z,0.44
2019-02-16T05:57:15.041Z,0.48
2019-02-16T05:59:44.350Z,0.52
2019-02-16T06:02:13.897Z,0.60
2019-02-16T06:04:43.257Z,0.64
2019-02-16T06:07:12.588Z,0.62
2019-02-16T06:09:41.990Z,0.60
2019-02-16T06:12:11.334Z,0.65
2019-02-16T06:14:40.621Z,0.71
2019-02-16T06:17:10.118Z,0.73
2019-02-16T06:19:39.425Z,0.66
2019-02-16T06:22:08.744Z,0.60
2019-02-16T06:24:38.352Z,0.62
2019-02-16T06:27:07.668Z,0.76
2019-02-16T06:29:36.961Z,0.78
2019-02-16T06:32:06.523Z,0.71
2019-02-16T06:34:35.845Z,0.63
2019-02-16T06:37:21.449Z,0.65
2019-02-16T06:39:51.353Z,0.63
2019-02-16T06:42:20.824Z,0.66
2019-02-16T06:44:50.314Z,0.85
2019-02-16T06:47:19.687Z,1.05
2019-02-16T06:49:49.001Z,1.42
2019-02-16T06:52:18.471Z,1.75
2019-02-16T06:54:47.750Z,1.95
2019-02-16T06:57:23.823Z,2.10
2019-02-16T06:59:53.156Z,2.12
2019-02-16T07:02:23.383Z,2.01
2019-02-16T07:04:52.763Z,1.92
2019-02-16T07:07:22.023Z,1.97
2019-02-16T07:09:51.365Z,2.06
2019-02-16T07:12:20.868Z,2.03
2019-02-16T07:14:50.217Z,1.95
2019-02-16T07:17:50.420Z,1.86
2019-02-16T07:20:21.913Z,1.79
2019-02-16T07:22:51.329Z,1.75
2019-02-16T07:25:20.641Z,1.76
2019-02-16T07:27:50.042Z,1.82
2019-02-16T07:30:19.571Z,1.89
2019-02-16T07:32:48.854Z,2.11
2019-02-16T07:35:18.171Z,2.25
2019-02-16T07:37:47.690Z,2.39
2019-02-16T07:40:16.998Z,2.54
2019-02-16T07:42:51.430Z,2.72
2019-02-16T07:45:50.646Z,2.91
2019-02-16T07:48:26.996Z,3.06
2019-02-16T07:51:03.670Z,3.35
2019-02-16T07:53:41.780Z,3.76
2019-02-16T07:56:16.128Z,4.58
2019-02-16T07:58:50.866Z,5.83
2019-02-16T08:01:38.434Z,6.73
2019-02-16T08:04:16.459Z,7.50
2019-02-16T08:07:04.643Z,7.66
2019-02-16T08:09:56.113Z,7.31
2019-02-16T08:12:32.206Z,7.05
2019-02-16T08:15:15.177Z,6.43
2019-02-16T08:18:01.796Z,6.17
2019-02-16T08:20:42.744Z,5.81
2019-02-16T08:23:40.634Z,5.54
2019-02-16T08:26:18.116Z,5.35
2019-02-16T08:28:59.829Z,5.41
2019-02-16T08:31:41.235Z,5.38
2019-02-16T08:34:18.039Z,5.34
2019-02-16T08:37:21.607Z,5.38
2019-02-16T08:40:01.234Z,5.35
2019-02-16T08:42:45.681Z,5.31
2019-02-16T08:45:32.569Z,5.37
2019-02-16T08:48:19.748Z,5.33
2019-02-16T08:51:16.995Z,5.38
2019-02-16T08:53:56.081Z,5.41
2019-02-16T08:56:36.542Z,5.55
2019-02-16T08:59:19.457Z,5.66
2019-02-16T09:02:03.462Z,5.59
2019-02-16T09:04:47.929Z,5.65
2019-02-16T09:07:25.810Z,5.65
2019-02-16T09:10:26.178Z,5.65
2019-02-16T09:13:10.349Z,5.75
2019-02-16T09:16:04.762Z,6.00
2019-02-16T09:18:59.012Z,6.15
2019-02-16T09:21:34.167Z,6.26
2019-02-16T09:24:16.240Z,6.42
2019-02-16T09:27:10.765Z,6.52
2019-02-16T09:29:57.671Z,6.73
2019-02-16T09:32:48.129Z,6.74
2019-02-16T09:35:51.777Z,6.83
2019-02-16T09:38:38.380Z,7.11
2019-02-16T09:41:29.394Z,7.37
2019-02-16T09:44:09.447Z,7.58
2019-02-16T09:47:00.508Z,7.71
2019-02-16T09:49:44.031Z,7.89
2019-02-16T09:52:29.156Z,8.02
2019-02-16T09:55:19.891Z,8.20
2019-02-16T09:58:06.574Z,8.42
2019-02-16T10:00:44.049Z,8.53
2019-02-16T10:03:23.200Z,8.67
2019-02-16T10:06:19.088Z,8.86
2019-02-16T10:09:13.289Z,8.93
2019-02-16T10:11:47.785Z,8.95
2019-02-16T10:14:26.667Z,8.93
2019-02-16T10:17:06.171Z,9.09
2019-02-16T10:20:09.642Z,9.17
2019-02-16T10:23:03.987Z,9.29
2019-02-16T10:25:55.995Z,9.42
2019-02-16T10:28:50.509Z,9.51
2019-02-16T10:31:44.819Z,9.52
2019-02-16T10:34:31.750Z,9.73
2019-02-16T10:37:18.577Z,10.45
2019-02-16T10:40:05.268Z,10.91
2019-02-16T10:42:40.762Z,10.78
2019-02-16T10:45:32.541Z,10.55
2019-02-16T10:48:20.790Z,10.43
2019-02-16T10:51:07.050Z,10.41
2019-02-16T10:54:01.129Z,10.45
2019-02-16T10:56:49.680Z,11.52
2019-02-16T10:59:50.222Z,13.61
2019-02-16T11:02:26.188Z,16.98
2019-02-16T11:05:17.162Z,19.70
2019-02-16T11:08:11.442Z,21.66
2019-02-16T11:10:48.562Z,23.08
2019-02-16T11:13:43.198Z,23.15
2019-02-16T11:16:40.599Z,23.60
2019-02-16T11:19:34.983Z,24.16
2019-02-16T11:22:12.742Z,23.96
2019-02-16T11:25:00.644Z,24.71
2019-02-16T11:28:00.798Z,25.75
2019-02-16T11:30:42.419Z,25.97
2019-02-16T11:33:16.996Z,24.99
2019-02-16T11:36:11.281Z,24.08
2019-02-16T11:38:52.005Z,24.69
2019-02-16T11:41:49.200Z,25.22
2019-02-16T11:44:36.161Z,25.77
2019-02-16T11:47:27.537Z,24.85
2019-02-16T11:50:12.853Z,24.56
2019-02-16T11:53:10.147Z,21.62
2019-02-16T11:56:01.465Z,20.01
2019-02-16T11:58:58.775Z,17.54
2019-02-16T12:01:35.400Z,16.51
2019-02-16T12:04:23.659Z,15.87
2019-02-16T12:07:05.696Z,14.97
2019-02-16T12:09:48.706Z,14.64
2019-02-16T12:12:35.516Z,14.25
2019-02-16T12:15:30.338Z,14.08
2019-02-16T12:18:18.609Z,13.92
2019-02-16T12:20:58.706Z,13.67
2019-02-16T12:23:46.961Z,13.25
2019-02-16T12:26:35.583Z,13.16
2019-02-16T12:29:17.312Z,12.84
2019-02-16T12:31:59.280Z,12.71
2019-02-16T12:34:59.349Z,12.65
2019-02-16T12:37:34.558Z,12.44
2019-02-16T12:40:22.829Z,12.30
2019-02-16T12:43:01.210Z,12.17
2019-02-16T12:45:58.370Z,12.07
2019-02-16T12:48:36.813Z,12.04
2019-02-16T12:51:26.726Z,11.92
2019-02-16T12:54:21.299Z,11.93
2019-02-16T12:57:09.574Z,11.81
2019-02-16T13:00:02.446Z,11.74
2019-02-16T13:02:49.485Z,11.70
2019-02-16T13:05:43.781Z,11.72
2019-02-16T13:08:40.938Z,11.65
2019-02-16T13:11:35.176Z,11.60
2019-02-16T13:14:13.801Z,11.59
2019-02-16T13:17:01.147Z,11.60
2019-02-16T13:19:49.393Z,11.58
2019-02-16T13:22:37.851Z,11.50
2019-02-16T13:25:24.176Z,11.36
2019-02-16T13:28:06.273Z,11.31
2019-02-16T13:30:47.393Z,11.33
2019-02-16T13:33:41.056Z,11.39
2019-02-16T13:36:19.629Z,11.37
2019-02-16T13:38:54.495Z,11.29
2019-02-16T13:41:42.765Z,11.20
2019-02-16T13:44:21.378Z,11.23
2019-02-16T13:47:00.420Z,11.18
2019-02-16T13:49:41.649Z,11.21
2019-02-16T13:52:19.587Z,11.15
2019-02-16T13:55:19.831Z,11.12
2019-02-16T13:58:14.124Z,11.05
2019-02-16T14:00:47.361Z,11.05
2019-02-16T14:03:31.934Z,11.04
2019-02-16T14:06:29.368Z,11.01
2019-02-16T14:09:16.494Z,11.07
2019-02-16T14:12:13.733Z,11.10
2019-02-16T14:15:14.334Z,11.10
2019-02-16T14:17:45.347Z,11.00
2019-02-16T14:20:14.739Z,10.97
2019-02-16T14:22:44.181Z,11.00
2019-02-16T14:25:19.040Z,10.96
2019-02-16T14:27:48.380Z,10.91
2019-02-16T14:30:17.650Z,10.86
2019-02-16T14:32:46.981Z,10.80
2019-02-16T14:35:16.590Z,10.77
2019-02-16T14:37:53.992Z,10.71
2019-02-16T14:40:26.220Z,10.67
2019-02-16T14:42:55.507Z,10.60
2019-02-16T14:45:24.834Z,10.59
2019-02-16T14:47:54.114Z,10.52
2019-02-16T14:50:23.431Z,10.41
2019-02-16T14:52:52.752Z,10.38
2019-02-16T14:55:22.202Z,10.26
2019-02-16T14:57:51.521Z,10.19
2019-02-16T15:00:20.824Z,10.18
2019-02-16T15:02:50.116Z,10.04
2019-02-16T15:05:19.518Z,9.90
2019-02-16T15:07:48.855Z,9.80
2019-02-16T15:10:18.270Z,9.70
2019-02-16T15:12:47.715Z,9.56
2019-02-16T15:15:16.999Z,9.54
2019-02-16T15:17:46.452Z,9.43
2019-02-16T15:20:15.912Z,9.35
2019-02-16T15:22:45.493Z,9.25
2019-02-16T15:25:15.064Z,9.19
2019-02-16T15:27:44.404Z,9.21
2019-02-16T15:30:15.208Z,9.11
2019-02-16T15:32:44.641Z,9.05
2019-02-16T15:35:14.022Z,8.98
2019-02-16T15:37:43.456Z,8.89
2019-02-16T15:40:12.885Z,8.79
2019-02-16T15:42:42.287Z,8.68
2019-02-16T15:45:13.192Z,8.73
2019-02-16T15:47:42.670Z,8.69
2019-02-16T15:50:13.026Z,8.63
2019-02-16T15:52:42.378Z,8.52
2019-02-16T15:55:11.847Z,8.38
2019-02-16T15:57:41.197Z,8.26
2019-02-16T16:00:17.587Z,8.13
2019-02-16T16:02:47.034Z,8.00
2019-02-16T16:05:16.359Z,7.83
2019-02-16T16:07:49.109Z,7.76
2019-02-16T16:10:28.947Z,7.70
2019-02-16T16:13:27.305Z,7.55
2019-02-16T16:16:12.244Z,7.40
2019-02-16T16:18:50.491Z,7.31
2019-02-16T16:21:25.665Z,7.30
2019-02-16T16:24:20.040Z,7.22
2019-02-16T16:27:20.258Z,7.11
2019-02-16T16:30:08.716Z,6.96
2019-02-16T16:32:47.737Z,6.87
2019-02-16T16:35:36.128Z,6.75
2019-02-16T16:38:27.523Z,6.63
2019-02-16T16:41:14.417Z,6.55
2019-02-16T16:43:53.367Z,6.51
2019-02-16T16:46:41.776Z,6.40
2019-02-16T16:49:28.478Z,6.39
2019-02-16T16:52:15.601Z,6.31
2019-02-16T16:55:01.460Z,6.16
2019-02-16T16:57:55.555Z,6.09
2019-02-16T17:00:35.062Z,5.99
2019-02-16T17:03:23.754Z,5.83
2019-02-16T17:06:10.451Z,5.83
2019-02-16T17:09:05.137Z,5.81
2019-02-16T17:12:02.239Z,5.78
2019-02-16T17:14:49.189Z,5.73
2019-02-16T17:17:28.396Z,5.60
2019-02-16T17:20:15.124Z,5.50
2019-02-16T17:23:00.010Z,5.36
2019-02-16T17:25:46.816Z,5.26
2019-02-16T17:28:53.282Z,5.20
2019-02-16T17:31:40.048Z,5.34
2019-02-16T17:34:46.350Z,5.28
2019-02-16T17:37:46.690Z,5.18
2019-02-16T17:40:43.793Z,5.11
2019-02-16T17:43:30.798Z,5.09
2019-02-16T17:46:17.835Z,5.11
2019-02-16T17:49:04.743Z,5.19
2019-02-16T17:51:52.811Z,5.36
2019-02-16T17:54:41.417Z,5.64
2019-02-16T17:57:29.692Z,5.74
2019-02-16T18:00:21.079Z,5.86
2019-02-16T18:03:07.864Z,6.04
2019-02-16T18:06:05.109Z,6.17
2019-02-16T18:08:53.138Z,6.21
2019-02-16T18:11:44.702Z,6.38
2019-02-16T18:14:24.340Z,6.39
2019-02-16T18:17:12.773Z,6.49
2019-02-16T18:19:47.507Z,6.54
2019-02-16T18:22:28.863Z,6.72
2019-02-16T18:25:15.854Z,6.79
2019-02-16T18:28:02.115Z,6.84
2019-02-16T18:30:41.030Z,6.94
2019-02-16T18:33:36.941Z,6.93
2019-02-16T18:36:14.422Z,6.95
2019-02-16T18:38:49.449Z,6.89
2019-02-16T18:41:37.949Z,6.79
2019-02-16T18:44:35.377Z,6.72
2019-02-16T18:47:22.443Z,6.68
2019-02-16T18:50:09.622Z,6.62
2019-02-16T18:52:49.722Z,6.54
2019-02-16T18:55:53.375Z,6.42
2019-02-16T18:58:44.554Z,6.26
2019-02-16T19:01:51.213Z,6.22
2019-02-16T19:04:33.268Z,6.10
2019-02-16T19:07:27.763Z,6.02
2019-02-16T19:10:22.341Z,6.05
2019-02-16T19:13:10.061Z,6.03
2019-02-16T19:15:45.502Z,5.96
2019-02-16T19:18:45.710Z,5.95
2019-02-16T19:21:42.741Z,5.86
2019-02-16T19:24:46.582Z,5.74
2019-02-16T19:27:43.811Z,5.68
2019-02-16T19:30:30.715Z,5.55
2019-02-16T19:33:14.573Z,5.43
2019-02-16T19:36:11.488Z,5.33
2019-02-16T19:38:59.770Z,5.29
2019-02-16T19:41:40.578Z,5.20
2019-02-16T19:44:22.835Z,5.15
2019-02-16T19:47:17.451Z,5.17
2019-02-16T19:50:11.732Z,5.24
2019-02-16T19:52:53.889Z,5.26
2019-02-16T19:55:42.159Z,5.26
2019-02-16T19:58:20.712Z,5.30
2019-02-16T20:01:07.291Z,5.20
2019-02-16T20:04:04.888Z,5.17
2019-02-16T20:06:48.810Z,5.23
2019-02-16T20:09:23.848Z,5.34
2019-02-16T20:12:10.560Z,5.37
2019-02-16T20:14:54.593Z,5.35
2019-02-16T20:17:41.764Z,5.32
2019-02-16T20:20:38.881Z,5.25
2019-02-16T20:23:42.163Z,5.16
2019-02-16T20:26:39.415Z,5.09
2019-02-16T20:29:23.052Z,5.06
2019-02-16T20:32:15.679Z,4.98
2019-02-16T20:35:06.854Z,4.86
2019-02-16T20:37:44.150Z,4.78
2019-02-16T20:40:30.992Z,4.80
2019-02-16T20:43:22.131Z,4.73
2019-02-16T20:46:25.741Z,4.66
2019-02-16T20:49:06.137Z,4.60
2019-02-16T20:51:54.354Z,4.65
2019-02-16T20:54:35.017Z,4.64
2019-02-16T20:57:23.312Z,4.58
2019-02-16T21:00:21.551Z,4.62
2019-02-16T21:03:03.429Z,4.58
2019-02-16T21:05:54.988Z,4.56
2019-02-16T21:08:52.516Z,4.49
2019-02-16T21:11:39.215Z,4.43
2019-02-16T21:14:25.462Z,4.36
2019-02-16T21:17:12.140Z,4.28
2019-02-16T21:20:07.550Z,4.17
2019-02-16T21:22:46.646Z,4.08
2019-02-16T21:25:31.858Z,4.01
2019-02-16T21:28:24.419Z,3.99
2019-02-16T21:31:01.985Z,3.91
2019-02-16T21:33:42.509Z,3.78
2019-02-16T21:36:26.169Z,3.68
2019-02-16T21:39:03.689Z,3.60
2019-02-16T21:41:50.510Z,3.55
2019-02-16T21:44:44.113Z,3.52
2019-02-16T21:47:30.686Z,3.45
2019-02-16T21:50:19.117Z,3.36
2019-02-16T21:53:05.782Z,3.39
2019-02-16T21:55:52.603Z,3.41
2019-02-16T21:58:40.823Z,3.46
2019-02-16T22:01:29.298Z,3.44
2019-02-16T22:04:16.425Z,3.41
2019-02-16T22:07:04.828Z,3.37
2019-02-16T22:09:53.146Z,3.32
2019-02-16T22:12:44.436Z,3.30
2019-02-16T22:15:13.828Z,3.29
2019-02-16T22:17:43.260Z,3.26
2019-02-16T22:20:12.705Z,3.23
2019-02-16T22:22:41.998Z,3.25
2019-02-16T22:25:11.397Z,3.20
2019-02-16T22:27:40.881Z,3.16
2019-02-16T22:30:10.421Z,3.09
2019-02-16T22:32:39.771Z,3.05
2019-02-16T22:35:09.384Z,3.04
2019-02-16T22:37:38.710Z,3.08
2019-02-16T22:40:08.354Z,3.04
2019-02-16T22:42:37.893Z,3.01
2019-02-16T22:45:07.549Z,2.99
2019-02-16T22:47:36.865Z,3.00
2019-02-16T22:50:08.765Z,3.01
2019-02-16T22:52:38.126Z,2.97
2019-02-16T22:55:07.791Z,2.93
2019-02-16T22:57:37.301Z,2.82
2019-02-16T23:00:11.072Z,2.79
2019-02-16T23:02:40.731Z,2.77
2019-02-16T23:05:10.120Z,2.80
2019-02-16T23:07:39.419Z,2.82
2019-02-16T23:10:09.926Z,2.83
2019-02-16T23:12:39.327Z,2.88
2019-02-16T23:15:10.412Z,2.86
2019-02-16T23:17:39.978Z,2.89
2019-02-16T23:20:10.077Z,3.02
2019-02-16T23:22:39.498Z,3.01
2019-02-16T23:25:09.145Z,3.08
2019-02-16T23:27:38.392Z,3.11
2019-02-16T23:30:08.172Z,3.13
2019-02-16T23:32:37.705Z,3.16
2019-02-16T23:35:07.358Z,3.28
2019-02-16T23:37:36.714Z,3.32
2019-02-16T23:40:06.350Z,3.32
2019-02-16T23:42:35.715Z,3.31
2019-02-16T23:45:05.598Z,3.48
2019-02-16T23:47:34.935Z,3.59
2019-02-16T23:50:04.420Z,3.61
2019-02-16T23:52:33.695Z,3.59
2019-02-16T23:55:03.219Z,3.57
2019-02-16T23:57:32.515Z,3.56
